Home > Products > Valid Products > TAF

000
FTUS44 KCRP 272300
TAFCRP
TAF
KCRP 272326Z 2800/2824 19004KT P6SM SKC
     FM281900 16013KT P6SM FEW250=



000
FTUS44 KCRP 272300
TAFALI
TAF
KALI 272326Z 2800/2824 VRB04KT P6SM SKC
     FM282000 16012KT P6SM FEW250=



000
FTUS44 KCRP 272300
TAFVCT
TAF
KVCT 272326Z 2800/2824 20004KT P6SM SKC
     FM282000 17012KT P6SM SKC=



000
FTUS44 KCRP 272300
TAFLRD
TAF
KLRD 272326Z 2800/2824 15005KT P6SM SKC
      AMD NOT SKED AFT 280400=



000
FTUS44 KCRP 271700
TAFALI
TAF
KALI 271720Z 2718/2818 24008KT P6SM SKC
     FM272300 VRB04KT P6SM FEW200=



000
FTUS44 KCRP 271700
TAFVCT
TAF
KVCT 271720Z 2718/2818 27011KT P6SM SKC
     FM272300 20004KT P6SM SKC=



000
FTUS44 KCRP 271700
TAFCRP
TAF
KCRP 271720Z 2718/2818 24010KT P6SM SKC
     FM272300 19004KT P6SM FEW200=



000
FTUS44 KCRP 271700
TAFLRD
TAF
KLRD 271720Z 2718/2818 VRB04KT P6SM SCT150
     FM272300 16004KT P6SM FEW150=



000
FTUS44 KCRP 271100
TAFVCT
TAF
KVCT 271130Z 2712/2812 25006KT P6SM SCT250=



000
FTUS44 KCRP 271100
TAFALI
TAF
KALI 271130Z 2712/2812 VRB05KT P6SM SCT200=



000
FTUS44 KCRP 271100
TAFCRP
TAF
KCRP 271130Z 2712/2812 VRB05KT P6SM SCT200=



000
FTUS44 KCRP 271100
TAFLRD
TAF
KLRD 271130Z 2712/2812 VRB04KT P6SM SCT150
      AMD NOT SKED TIL 271300=



000
FTUS44 KCRP 270500
TAFVCT
TAF
KVCT 270522Z 2706/2806 VRB06KT P6SM BKN250
     FM271800 29009KT P6SM SKC=



000
FTUS44 KCRP 270500
TAFALI
TAF
KALI 270522Z 2706/2806 VRB05KT P6SM SCT250=



000
FTUS44 KCRP 270500
TAFCRP
TAF
KCRP 270522Z 2706/2806 19005KT P6SM BKN190 BKN250=



000
FTUS44 KCRP 270500
TAFLRD
TAF
KLRD 270522Z 2706/2806 VRB04KT P6SM BKN250
      AMD NOT SKED=



000
FTUS44 KCRP 262300
TAFALI
TAF
KALI 262321Z 2700/2724 VRB05KT P6SM SCT250=



000
FTUS44 KCRP 262300
TAFCRP
TAF
KCRP 262321Z 2700/2724 VRB04KT P6SM SCT250=



000
FTUS44 KCRP 262300
TAFLRD
TAF
KLRD 262321Z 2700/2724 VRB04KT P6SM BKN250=



000
FTUS44 KCRP 262300
TAFVCT
TAF
KVCT 262321Z 2700/2724 VRB06KT P6SM BKN250
     FM271800 29009KT P6SM SCT250=



000
FTUS44 KCRP 261700
TAFLRD
TAF
KLRD 261728Z 2618/2718 VRB06KT P6SM BKN250
     FM270000 18004KT P6SM BKN250=



000
FTUS44 KCRP 261700
TAFVCT
TAF
KVCT 261728Z 2618/2718 VRB06KT P6SM BKN250
     FM270600 27004KT P6SM SCT250=



000
FTUS44 KCRP 261700
TAFCRP
TAF
KCRP 261728Z 2618/2718 VRB04KT P6SM SCT250
     FM270600 24005KT P6SM SCT250=



000
FTUS44 KCRP 261700
TAFALI
TAF
KALI 261728Z 2618/2718 VRB05KT P6SM SCT250
     FM270600 24004KT P6SM SCT250=



000
FTUS44 KCRP 261100
TAFVCT
TAF
KVCT 261130Z 2612/2712 VRB06KT P6SM SCT250=



000
FTUS44 KCRP 261100
TAFCRP
TAF
KCRP 261130Z 2612/2712 VRB04KT P6SM SCT250=



000
FTUS44 KCRP 261100
TAFLRD
TAF
KLRD 261130Z 2612/2712 VRB06KT P6SM SCT250
      AMD NOT SKED TIL 261300=



000
FTUS44 KCRP 261100
TAFALI
TAF
KALI 261130Z 2612/2712 VRB05KT P6SM SCT250=



000
FTUS44 KCRP 260500
TAFVCT
TAF
KVCT 260520Z 2606/2706 31006KT P6SM SCT250
     FM262200 24006KT P6SM FEW250=



000
FTUS44 KCRP 260500
TAFLRD
TAF
KLRD 260520Z 2606/2706 VRB04KT P6SM SCT250
     FM261700 17005KT P6SM SCT250
      AMD NOT SKED=



000
FTUS44 KCRP 260500
TAFALI
TAF
KALI 260520Z 2606/2706 31006KT P6SM SCT250
     FM261500 VRB04KT P6SM SCT250=



000
FTUS44 KCRP 260500
TAFCRP
TAF
KCRP 260520Z 2606/2706 32006KT P6SM SCT250
     FM261600 VRB04KT P6SM SCT250
     FM262200 16006KT P6SM FEW250=



000
FTUS44 KCRP 252300
TAFCRP
TAF
KCRP 252332Z 2600/2624 32008KT P6SM SCT250
     FM261600 VRB04KT P6SM SCT250
     FM262200 16007KT P6SM FEW250=



000
FTUS44 KCRP 252300
TAFVCT
TAF
KVCT 252332Z 2600/2624 31006KT P6SM SCT250
     FM262100 25005KT P6SM FEW250=



000
FTUS44 KCRP 252300
TAFALI
TAF
KALI 252332Z 2600/2624 32005KT P6SM SCT250
     FM261500 VRB04KT P6SM SCT250=



000
FTUS44 KCRP 252300
TAFLRD
TAF
KLRD 252332Z 2600/2624 VRB04KT P6SM SCT250
     FM261700 17005KT P6SM SCT250
      AMD NOT SKED AFT 260400=



000
FTUS44 KCRP 251700
TAFCRP
TAF
KCRP 251721Z 2518/2618 26010KT P6SM SCT250
     FM252200 33008KT P6SM SCT250=



000
FTUS44 KCRP 251700
TAFVCT
TAF
KVCT 251721Z 2518/2618 29012KT P6SM FEW250
     FM252200 33006KT P6SM SCT250=



000
FTUS44 KCRP 251700
TAFLRD
TAF
KLRD 251721Z 2518/2618 27006KT P6SM SCT250
     FM252100 VRB04KT P6SM SCT250=



000
FTUS44 KCRP 251700
TAFALI
TAF
KALI 251721Z 2518/2618 26008KT P6SM SCT250
     FM252100 32006KT P6SM SCT250=



000
FTUS44 KCRP 251100
TAFCRP
TAF
KCRP 251125Z 2512/2612 21004KT P6SM SCT250
     FM252100 32012KT P6SM SCT250
     FM260200 34005KT P6SM FEW250=



000
FTUS44 KCRP 251100
TAFVCT
TAF
KVCT 251125Z 2512/2612 26006KT P6SM FEW250
     FM251900 30012KT P6SM SCT250
     FM260300 32004KT P6SM FEW250=



000
FTUS44 KCRP 251100
TAFLRD
TAF
KLRD 251125Z 2512/2612 VRB04KT P6SM SCT250
     FM252000 32009KT P6SM SCT250
     FM260200 VRB03KT P6SM FEW250
      AMD NOT SKED TIL 251300=



000
FTUS44 KCRP 251100
TAFALI
TAF
KALI 251125Z 2512/2612 24006KT P6SM SCT250
     FM252100 32010KT P6SM SCT250
     FM260200 VRB03KT P6SM FEW250=



000
FTUS44 KCRP 250500
TAFALI
TAF
KALI 250531Z 2506/2606 24006KT P6SM FEW150 SCT250
     FM252000 32009KT P6SM FEW150 SCT250
     FM260200 VRB03KT P6SM FEW250=



000
FTUS44 KCRP 250500
TAFVCT
TAF
KVCT 250531Z 2506/2606 25006KT P6SM FEW150 SCT250
     FM251800 30011KT P6SM FEW150 SCT250
     FM260000 32004KT P6SM FEW250=



000
FTUS44 KCRP 250500
TAFLRD
TAF
KLRD 250531Z 2506/2606 VRB04KT P6SM SCT200
     FM251800 31008KT P6SM FEW120 SCT250
     FM260100 VRB03KT P6SM FEW200
      AMD NOT SKED=



000
FTUS44 KCRP 250500
TAFCRP
TAF
KCRP 250531Z 2506/2606 25009KT P6SM FEW150 SCT250
     FM252000 31010KT P6SM FEW150 SCT250
     FM260200 34004KT P6SM FEW250=



    US Dept of Commerce
    National Oceanic and Atmospheric Administration
    National Weather Service
    1325 East West Highway
    Silver Spring, MD 20910
    Page Author: NWS Internet Services Team
Disclaimer
Information Quality
Credits
Glossary
Privacy Policy
Freedom of Information Act (FOIA)
About Us
Career Opportunities